Time;durP1;ratioP1;P1;durP2;ratioP2;P2;SDS_P1;SDS_P2;PMS_P1;PMS_P2;Temp;Humidity;BMP_temperature;BMP_pressure;BME280_temperature;BME280_humidity;BME280_pressure;Samples;Min_cycle;Max_cycle;Signal;HPM_P1;HPM_P2
2021/06/25 00:01:42;;;;;;;8.57;2.85;;;;;;;13.62;69.81;101435.22;5033758;28;20501;-71
2021/06/25 00:04:08;;;;;;;5.95;2.75;;;;;;;13.59;69.70;101438.53;5033134;28;20028;-71
2021/06/25 00:06:33;;;;;;;4.97;2.78;;;;;;;13.50;69.82;101434.59;5033037;28;20041;-71
2021/06/25 00:08:58;;;;;;;6.85;3.05;;;;;;;13.52;69.64;101432.97;5033080;28;20068;-71
2021/06/25 00:11:24;;;;;;;5.43;2.50;;;;;;;13.54;69.06;101433.94;5033977;28;20076;-71
2021/06/25 00:13:50;;;;;;;6.47;2.92;;;;;;;13.55;68.83;101431.41;5032579;28;20395;-71
2021/06/25 00:16:16;;;;;;;5.35;2.75;;;;;;;13.52;68.62;101422.63;5033003;28;20021;-70
2021/06/25 00:18:42;;;;;;;4.53;2.60;;;;;;;13.48;68.84;101420.69;5033153;28;20064;-70
2021/06/25 00:21:07;;;;;;;7.05;2.83;;;;;;;13.40;68.94;101408.25;5032817;28;20022;-70
2021/06/25 00:23:33;;;;;;;5.20;3.10;;;;;;;13.35;69.17;101409.72;5032578;28;20088;-71
2021/06/25 00:25:59;;;;;;;5.18;2.70;;;;;;;13.28;69.52;101412.81;5032859;28;20440;-71
2021/06/25 00:28:24;;;;;;;6.68;3.10;;;;;;;13.32;69.08;101406.97;5033956;28;20089;-71
2021/06/25 00:30:50;;;;;;;5.00;3.10;;;;;;;13.26;69.18;101414.44;5033986;28;20061;-70
2021/06/25 00:33:16;;;;;;;7.45;3.40;;;;;;;13.21;69.28;101421.03;5032391;28;20025;-70
2021/06/25 00:35:41;;;;;;;7.80;3.80;;;;;;;13.18;69.50;101426.03;5033747;28;20031;-70
2021/06/25 00:38:06;;;;;;;5.25;3.40;;;;;;;13.15;69.41;101432.84;5033598;28;20029;-71
2021/06/25 00:40:33;;;;;;;5.38;3.35;;;;;;;13.06;69.96;101432.38;5032562;28;20112;-70
2021/06/25 00:43:00;;;;;;;8.15;3.15;;;;;;;13.04;69.84;101423.66;5032141;28;20117;-70
2021/06/25 00:45:26;;;;;;;5.57;3.55;;;;;;;13.02;69.73;101427.84;5042835;28;20029;-70
2021/06/25 00:47:52;;;;;;;5.15;3.03;;;;;;;13.04;69.81;101422.78;5053392;28;20027;-71
2021/06/25 00:50:24;;;;;;;9.27;3.25;;;;;;;13.03;69.83;101427.03;5053146;28;20470;-71
2021/06/25 00:52:54;;;;;;;6.40;3.53;;;;;;;12.99;70.11;101426.00;5040730;28;20040;-71
2021/06/25 00:55:20;;;;;;;7.78;3.47;;;;;;;12.95;69.94;101418.00;5031979;28;20032;-71
2021/06/25 00:57:46;;;;;;;8.93;3.88;;;;;;;12.88;70.21;101423.66;5032201;28;20059;-70
2021/06/25 01:00:13;;;;;;;6.80;3.80;;;;;;;12.81;70.34;101425.06;5032213;28;20129;-70
2021/06/25 01:02:38;;;;;;;5.85;3.90;;;;;;;12.75;70.69;101428.19;5015283;28;20025;-71
2021/06/25 01:05:05;;;;;;;7.30;3.75;;;;;;;12.70;70.79;101430.50;5032143;28;20049;-71
2021/06/25 01:07:32;;;;;;;10.93;3.90;;;;;;;12.64;71.05;101437.06;5032080;28;20453;-71
2021/06/25 01:09:58;;;;;;;7.40;3.95;;;;;;;12.60;71.03;101440.31;5031940;28;20025;-71
2021/06/25 01:12:23;;;;;;;6.95;4.03;;;;;;;12.55;71.08;101440.94;5031022;28;20136;-70
2021/06/25 01:14:49;;;;;;;6.82;4.32;;;;;;;12.54;70.76;101436.59;5032121;28;20204;-71
2021/06/25 01:17:30;;;;;;;8.88;4.35;;;;;;;12.46;71.68;101443.03;5031989;28;20105;-71
2021/06/25 01:19:57;;;;;;;8.90;4.63;;;;;;;12.42;71.64;101436.78;5032008;28;20116;-71
2021/06/25 01:22:41;;;;;;;5.65;3.60;;;;;;;12.39;71.62;101446.09;5031251;28;20056;-70
2021/06/25 01:25:45;;;;;;;9.45;4.50;;;;;;;12.35;71.82;101444.16;5031917;28;20017;-71
2021/06/25 01:28:11;;;;;;;8.40;4.85;;;;;;;12.31;72.03;101442.19;5032852;28;20482;-71
2021/06/25 01:30:40;;;;;;;7.47;4.88;;;;;;;12.32;72.20;101438.81;5031689;28;20459;-71
2021/06/25 01:33:08;;;;;;;8.88;4.10;;;;;;;12.33;71.92;101436.28;5032616;28;20127;-72
2021/06/25 01:35:35;;;;;;;9.98;5.30;;;;;;;12.36;72.21;101430.41;5032815;28;20025;-71
2021/06/25 01:38:01;;;;;;;7.88;4.55;;;;;;;12.38;72.22;101431.41;5031485;28;20025;-72
2021/06/25 01:40:27;;;;;;;11.05;4.85;;;;;;;12.35;72.23;101438.97;5031599;28;20017;-71
2021/06/25 01:42:53;;;;;;;8.55;5.07;;;;;;;12.39;72.03;101435.75;5032222;28;20478;-71
2021/06/25 01:45:21;;;;;;;9.02;4.43;;;;;;;12.37;72.07;101442.53;5031088;28;20060;-72
2021/06/25 01:47:48;;;;;;;6.88;4.63;;;;;;;12.30;72.22;101441.28;5032581;28;20368;-71
2021/06/25 01:50:19;;;;;;;8.68;5.00;;;;;;;12.29;72.47;101438.66;5032592;28;20021;-71
2021/06/25 01:52:58;;;;;;;12.55;5.20;;;;;;;12.27;72.47;101436.88;5031272;28;20052;-71
2021/06/25 01:55:25;;;;;;;13.13;5.97;;;;;;;12.16;72.97;101434.47;5031288;28;20029;-71
2021/06/25 01:57:51;;;;;;;12.38;5.82;;;;;;;12.18;72.74;101431.16;5031273;28;20586;-71
2021/06/25 02:00:17;;;;;;;11.23;5.90;;;;;;;12.14;72.79;101429.22;5033186;28;20249;-71
2021/06/25 02:02:43;;;;;;;10.07;5.68;;;;;;;12.09;72.85;101430.66;5054923;28;20037;-71
2021/06/25 02:05:12;;;;;;;11.30;5.45;;;;;;;12.04;72.95;101426.94;5037486;28;20378;-71
2021/06/25 02:07:37;;;;;;;11.60;5.80;;;;;;;12.03;72.91;101426.06;5035636;28;20109;-71
2021/06/25 02:10:05;;;;;;;12.90;5.60;;;;;;;12.04;73.16;101424.34;5036253;28;20453;-70
2021/06/25 02:12:30;;;;;;;14.48;5.93;;;;;;;12.02;72.98;101423.38;5034740;28;20045;-70
2021/06/25 02:14:56;;;;;;;9.07;5.88;;;;;;;11.99;73.03;101430.09;5035983;28;20056;-71
2021/06/25 02:17:22;;;;;;;10.68;6.07;;;;;;;11.99;73.31;101424.94;5034767;28;20116;-70
2021/06/25 02:19:48;;;;;;;10.25;6.20;;;;;;;11.90;73.65;101428.72;5035453;28;20516;-70
2021/06/25 02:22:14;;;;;;;10.32;6.70;;;;;;;11.87;74.22;101425.97;5036149;28;20120;-70
2021/06/25 02:24:40;;;;;;;9.02;5.55;;;;;;;11.92;73.73;101438.31;5035885;28;20100;-70
2021/06/25 02:27:06;;;;;;;11.23;5.75;;;;;;;11.90;73.60;101429.59;5034998;28;20029;-71
2021/06/25 02:29:32;;;;;;;13.40;6.30;;;;;;;11.86;73.68;101432.81;5034632;28;20067;-72
2021/06/25 02:31:58;;;;;;;14.07;6.40;;;;;;;11.85;73.89;101436.19;5036151;28;20053;-72
2021/06/25 02:34:23;;;;;;;14.77;6.40;;;;;;;11.86;74.00;101425.06;5034422;28;20029;-72
2021/06/25 02:36:48;;;;;;;13.13;7.18;;;;;;;11.88;73.81;101426.03;5037481;28;20033;-73
2021/06/25 02:39:14;;;;;;;14.75;6.93;;;;;;;11.88;73.68;101426.03;5045182;28;20060;-72
2021/06/25 02:41:40;;;;;;;9.88;6.88;;;;;;;11.80;73.96;101427.28;5043219;28;20025;-73
2021/06/25 02:44:07;;;;;;;10.52;6.78;;;;;;;11.77;74.01;101416.81;5060733;28;20052;-73
2021/06/25 02:46:32;;;;;;;11.75;6.32;;;;;;;11.75;73.92;101409.00;5044144;28;20021;-72
2021/06/25 02:48:58;;;;;;;12.10;6.38;;;;;;;11.79;74.04;101404.88;5045234;28;20048;-72
2021/06/25 02:51:25;;;;;;;9.85;6.10;;;;;;;11.79;73.91;101404.88;5043598;28;20021;-72
2021/06/25 02:53:50;;;;;;;11.30;6.15;;;;;;;11.80;74.02;101406.66;5044477;28;20524;-72
2021/06/25 02:56:16;;;;;;;12.07;7.07;;;;;;;11.78;74.04;101397.94;5046918;28;20056;-72
2021/06/25 02:58:42;;;;;;;9.30;6.25;;;;;;;11.76;74.11;101389.22;5054374;28;20020;-72
2021/06/25 03:01:08;;;;;;;11.40;7.35;;;;;;;11.72;74.08;101397.59;5055270;28;20032;-73
2021/06/25 03:03:33;;;;;;;9.70;5.68;;;;;;;11.68;74.21;101392.25;5047987;28;20056;-72
2021/06/25 03:05:58;;;;;;;13.80;6.90;;;;;;;11.64;74.27;101400.63;5035074;28;20037;-72
2021/06/25 03:08:24;;;;;;;13.65;7.80;;;;;;;11.63;74.43;101393.69;5034269;28;20057;-72
2021/06/25 03:10:50;;;;;;;12.40;6.85;;;;;;;11.67;74.55;101385.31;5035215;28;20034;-71
2021/06/25 03:13:17;;;;;;;13.95;7.43;;;;;;;11.66;74.64;101383.53;5033420;28;20056;-72
2021/06/25 03:15:44;;;;;;;15.50;7.35;;;;;;;11.72;74.38;101384.69;5034294;28;20037;-71
2021/06/25 03:18:10;;;;;;;15.60;7.10;;;;;;;11.72;74.27;101388.16;5034113;28;20052;-72
2021/06/25 03:20:35;;;;;;;10.98;6.97;;;;;;;11.76;74.33;101389.22;5035453;28;20029;-72
2021/06/25 03:23:01;;;;;;;12.23;7.65;;;;;;;11.74;74.65;101385.66;5034691;28;20075;-72
2021/06/25 03:25:27;;;;;;;12.00;6.82;;;;;;;11.76;74.01;101384.06;5033984;28;20494;-72
2021/06/25 03:27:53;;;;;;;15.15;7.60;;;;;;;11.78;73.99;101379.88;5033853;28;20021;-72
2021/06/25 03:30:19;;;;;;;11.30;7.72;;;;;;;11.79;74.03;101384.22;5035269;28;20029;-72
2021/06/25 03:32:45;;;;;;;12.00;7.40;;;;;;;11.78;74.27;101377.28;5034011;28;20022;-72
2021/06/25 03:35:12;;;;;;;14.10;7.65;;;;;;;11.84;74.12;101377.63;5034047;28;20036;-73
2021/06/25 03:37:38;;;;;;;12.25;7.45;;;;;;;11.86;74.21;101376.00;5016845;28;20034;-73
2021/06/25 03:40:12;;;;;;;13.73;7.88;;;;;;;11.90;74.25;101377.97;5033644;28;20087;-72
2021/06/25 03:42:38;;;;;;;15.68;7.60;;;;;;;11.90;74.13;101388.28;5033489;28;20034;-72
2021/06/25 03:45:07;;;;;;;15.43;8.15;;;;;;;11.91;74.25;101389.19;5033363;28;20067;-72
2021/06/25 03:47:32;;;;;;;17.27;8.65;;;;;;;11.93;74.09;101380.72;5033474;28;20067;-72
2021/06/25 03:49:58;;;;;;;14.60;8.10;;;;;;;11.93;74.22;101388.47;5034640;28;20052;-72
2021/06/25 03:52:23;;;;;;;14.38;7.82;;;;;;;11.96;74.40;101380.88;5033405;28;20112;-71
2021/06/25 03:54:49;;;;;;;15.15;8.65;;;;;;;12.00;74.47;101379.41;5034273;28;20064;-72
2021/06/25 03:57:14;;;;;;;15.93;8.50;;;;;;;12.05;74.23;101377.06;5042197;28;20103;-72
2021/06/25 03:59:39;;;;;;;15.98;9.35;;;;;;;12.06;74.26;101369.41;5044401;28;20470;-72
2021/06/25 04:02:11;;;;;;;16.30;8.38;;;;;;;12.12;74.31;101374.00;5041597;28;20057;-72
2021/06/25 04:04:37;;;;;;;14.25;7.95;;;;;;;12.10;74.62;101383.38;5035275;28;20080;-72
2021/06/25 04:07:04;;;;;;;14.93;8.75;;;;;;;12.09;74.22;101384.16;5033752;28;20108;-72
2021/06/25 04:09:30;;;;;;;16.08;9.20;;;;;;;12.08;74.11;101387.56;5034377;28;20111;-72
2021/06/25 04:11:55;;;;;;;17.77;9.10;;;;;;;12.15;74.28;101384.50;5032802;28;20035;-71
2021/06/25 04:14:21;;;;;;;14.88;8.45;;;;;;;12.21;74.25;101383.97;5053678;28;20033;-71
2021/06/25 04:16:46;;;;;;;17.85;9.15;;;;;;;12.34;73.90;101390.69;5065501;28;20032;-71
2021/06/25 04:19:12;;;;;;;13.43;8.77;;;;;;;12.42;73.44;101387.69;5072607;28;20052;-71
2021/06/25 04:21:37;;;;;;;15.25;9.05;;;;;;;12.48;73.24;101384.56;5073756;28;20033;-72
2021/06/25 04:24:04;;;;;;;14.30;8.10;;;;;;;12.52;73.25;101381.34;5045423;28;20025;-72
2021/06/25 04:26:30;;;;;;;13.98;8.82;;;;;;;12.62;73.04;101382.69;5036170;28;20081;-71
2021/06/25 04:28:55;;;;;;;16.92;9.07;;;;;;;12.70;72.77;101380.53;5053785;28;20103;-72
2021/06/25 04:31:20;;;;;;;18.48;8.85;;;;;;;12.73;72.67;101383.28;5035696;28;20068;-71
2021/06/25 04:33:46;;;;;;;17.27;9.90;;;;;;;12.71;72.69;101378.00;5035761;28;20036;-72
2021/06/25 04:36:11;;;;;;;17.83;9.40;;;;;;;12.83;72.80;101372.59;5053758;28;20323;-71
2021/06/25 04:38:37;;;;;;;15.10;8.77;;;;;;;12.97;72.50;101369.84;5054077;28;20040;-72
2021/06/25 04:41:03;;;;;;;16.40;9.27;;;;;;;12.90;71.81;101372.91;5062772;28;20036;-71
2021/06/25 04:43:29;;;;;;;19.33;9.65;;;;;;;12.99;71.84;101363.03;5063968;28;20024;-72
2021/06/25 04:45:55;;;;;;;26.88;10.27;;;;;;;13.05;71.56;101357.31;5061994;28;20032;-72
2021/06/25 04:48:20;;;;;;;20.05;10.05;;;;;;;12.94;72.12;101354.16;5053807;28;20024;-72
2021/06/25 04:50:46;;;;;;;19.17;9.43;;;;;;;13.08;71.58;101348.00;5050875;28;20033;-72
2021/06/25 04:53:11;;;;;;;16.58;10.05;;;;;;;13.04;71.56;101356.41;5052242;28;20028;-72
2021/06/25 04:55:41;;;;;;;17.20;9.65;;;;;;;13.23;71.60;101362.50;5054989;28;20031;-72
2021/06/25 04:58:09;;;;;;;16.20;9.82;;;;;;;13.18;71.08;101359.69;5072656;28;20021;-72
2021/06/25 05:00:36;;;;;;;17.00;10.60;;;;;;;13.37;70.87;101360.59;5040063;28;20067;-72
2021/06/25 05:03:02;;;;;;;21.70;9.88;;;;;;;13.48;70.71;101358.59;5035245;28;20037;-73
2021/06/25 05:05:27;;;;;;;18.98;10.85;;;;;;;13.43;70.82;101350.59;5035352;28;20031;-72
2021/06/25 05:07:53;;;;;;;24.67;10.65;;;;;;;13.55;70.48;101350.31;5053187;28;20035;-72
2021/06/25 05:10:18;;;;;;;19.92;10.10;;;;;;;13.57;70.68;101351.28;5034821;28;20020;-72
2021/06/25 05:12:44;;;;;;;16.42;9.93;;;;;;;13.53;70.25;101344.19;5031711;28;20040;-72
2021/06/25 05:15:10;;;;;;;17.73;9.27;;;;;;;13.84;70.21;101368.94;5033019;28;20085;-72
2021/06/25 05:17:36;;;;;;;18.35;10.57;;;;;;;13.97;70.17;101381.66;5031964;28;20108;-72
2021/06/25 05:20:04;;;;;;;14.38;9.57;;;;;;;14.16;69.36;101373.03;5031941;28;20475;-72
2021/06/25 05:22:30;;;;;;;16.88;10.38;;;;;;;14.31;69.25;101370.28;5031757;28;20470;-72
2021/06/25 05:24:56;;;;;;;14.98;9.38;;;;;;;14.49;69.42;101371.91;5031760;28;20021;-72
2021/06/25 05:27:21;;;;;;;20.25;9.25;;;;;;;14.61;68.56;101367.28;5031833;28;20480;-72
2021/06/25 05:29:47;;;;;;;16.40;9.90;;;;;;;14.70;68.23;101364.22;5032703;28;20032;-71
2021/06/25 05:32:13;;;;;;;14.02;8.18;;;;;;;14.82;67.30;101366.47;5032916;28;20057;-72
2021/06/25 05:34:38;;;;;;;16.33;9.55;;;;;;;14.82;67.34;101371.66;5032954;28;20430;-72
2021/06/25 05:37:04;;;;;;;16.40;8.80;;;;;;;14.92;67.50;101378.16;5031540;28;20036;-71
2021/06/25 05:39:30;;;;;;;16.58;9.73;;;;;;;14.88;67.48;101382.31;5032819;28;20433;-72
2021/06/25 05:41:55;;;;;;;14.95;9.80;;;;;;;14.96;66.91;101385.25;5031634;28;20030;-71
2021/06/25 05:44:21;;;;;;;14.95;9.00;;;;;;;14.86;66.99;101383.94;5032753;28;20025;-72
2021/06/25 05:46:46;;;;;;;17.52;9.40;;;;;;;14.73;67.91;101381.63;5032282;28;20412;-72
2021/06/25 05:49:11;;;;;;;15.27;9.45;;;;;;;14.79;67.85;101376.72;5031599;28;20107;-72
2021/06/25 05:51:37;;;;;;;13.57;9.18;;;;;;;14.93;67.85;101371.22;5015029;28;20390;-72
2021/06/25 05:54:02;;;;;;;16.13;9.35;;;;;;;15.15;67.25;101365.25;5032619;28;20025;-72
2021/06/25 05:56:28;;;;;;;16.75;8.75;;;;;;;15.25;66.34;101371.72;5032449;28;20033;-72
2021/06/25 05:58:53;;;;;;;20.77;9.85;;;;;;;15.33;66.72;101375.50;5031295;28;20569;-72
2021/06/25 06:01:18;;;;;;;14.50;8.00;;;;;;;15.51;66.39;101379.72;5032737;28;20053;-72
2021/06/25 06:03:45;;;;;;;12.82;7.82;;;;;;;15.69;65.55;101385.63;5032632;28;20459;-71
2021/06/25 06:06:11;;;;;;;18.92;8.75;;;;;;;15.73;65.02;101371.94;5032276;28;20029;-72
2021/06/25 06:08:37;;;;;;;14.27;7.88;;;;;;;15.75;65.67;101375.50;5031360;28;20028;-72
2021/06/25 06:11:05;;;;;;;21.13;8.45;;;;;;;15.43;65.34;101377.69;5032437;28;20028;-72
2021/06/25 06:13:30;;;;;;;13.48;7.82;;;;;;;15.47;65.18;101379.59;5030591;28;20060;-72
2021/06/25 06:15:57;;;;;;;14.82;7.43;;;;;;;15.78;65.18;101380.81;5031545;28;20037;-72
2021/06/25 06:19:06;;;;;;;12.55;7.57;;;;;;;16.04;62.99;101387.91;5031293;28;20096;-72
2021/06/25 06:21:14;;;;;;;13.18;8.30;;;;;;;15.90;63.45;101379.56;5027857;28;20033;-72
2021/06/25 06:32:09;;;;;;;12.32;6.97;;;;;;;16.73;61.54;101388.69;5030339;28;20095;-72
2021/06/25 06:34:36;;;;;;;14.70;6.43;;;;;;;16.63;59.81;101396.16;5028952;28;20486;-72
2021/06/25 06:37:02;;;;;;;12.05;5.70;;;;;;;16.85;59.15;101396.94;5027980;28;20033;-72
2021/06/25 06:39:29;;;;;;;9.48;5.30;;;;;;;17.00;58.03;101390.53;5027938;28;20418;-72
2021/06/25 06:41:56;;;;;;;11.70;5.60;;;;;;;17.03;58.29;101393.22;5011404;28;20028;-72
2021/06/25 06:44:21;;;;;;;9.35;6.07;;;;;;;17.15;57.23;101396.25;5027863;28;20087;-72
2021/06/25 06:46:47;;;;;;;12.95;6.10;;;;;;;17.42;57.04;101405.81;5027894;28;20457;-71
2021/06/25 06:49:12;;;;;;;8.95;5.03;;;;;;;17.55;58.43;101404.53;5032827;28;20053;-72
2021/06/25 06:51:39;;;;;;;8.45;5.38;;;;;;;17.11;57.07;101399.59;5016756;28;20025;-72
2021/06/25 06:54:06;;;;;;;10.68;5.88;;;;;;;16.94;57.18;101401.56;5031699;28;20023;-72
2021/06/25 06:56:32;;;;;;;12.18;6.50;;;;;;;16.62;58.21;101407.41;5032312;28;20095;-72
2021/06/25 06:59:00;;;;;;;8.43;5.22;;;;;;;16.99;58.18;101410.47;5015684;28;20029;-72
2021/06/25 07:01:27;;;;;;;10.13;5.32;;;;;;;16.86;55.23;101398.69;5031640;28;20056;-72
2021/06/25 07:03:52;;;;;;;10.63;5.25;;;;;;;17.05;55.90;101407.19;5032229;28;20057;-72
2021/06/25 07:06:18;;;;;;;7.60;5.43;;;;;;;17.40;55.26;101402.28;5031560;28;20075;-72
2021/06/25 07:08:43;;;;;;;8.88;4.90;;;;;;;17.60;54.48;101402.09;5031349;28;20029;-73
2021/06/25 07:11:09;;;;;;;8.85;5.63;;;;;;;17.50;55.35;101407.00;5029975;28;20075;-72
2021/06/25 07:13:35;;;;;;;11.75;5.15;;;;;;;17.77;53.99;101400.91;5030757;28;20051;-73
2021/06/25 07:16:01;;;;;;;8.43;4.75;;;;;;;18.03;52.72;101406.06;5031051;28;20041;-73
2021/06/25 07:18:27;;;;;;;7.53;5.03;;;;;;;17.67;52.17;101401.44;5031197;28;20021;-73
2021/06/25 07:20:52;;;;;;;8.35;5.47;;;;;;;18.00;53.42;101400.75;5031091;28;20032;-73
2021/06/25 07:23:18;;;;;;;10.05;4.78;;;;;;;18.23;53.31;101403.16;5031450;28;20034;-73
2021/06/25 07:25:45;;;;;;;9.20;4.78;;;;;;;18.42;52.08;101396.78;5030851;28;20023;-74
2021/06/25 07:28:10;;;;;;;5.80;4.15;;;;;;;18.37;50.45;101401.84;5030761;28;20029;-73
2021/06/25 07:30:36;;;;;;;12.23;4.50;;;;;;;18.42;49.92;101398.50;5031487;28;20114;-73
2021/06/25 07:33:02;;;;;;;7.90;4.15;;;;;;;18.81;49.91;101387.44;5031140;28;20064;-73
2021/06/25 07:35:28;;;;;;;7.68;4.40;;;;;;;18.50;49.22;101397.88;5031084;28;20029;-74
2021/06/25 07:37:53;;;;;;;10.05;4.25;;;;;;;18.80;48.82;101388.28;5014285;28;20052;-73
2021/06/25 07:40:19;;;;;;;8.20;3.95;;;;;;;19.08;47.55;101387.28;5031278;28;20082;-73
2021/06/25 07:42:46;;;;;;;6.05;3.88;;;;;;;19.27;46.78;101388.66;5031106;28;20022;-73
2021/06/25 07:45:12;;;;;;;7.97;4.55;;;;;;;19.07;47.76;101387.25;5032155;28;20470;-73
2021/06/25 07:47:40;;;;;;;9.13;4.32;;;;;;;19.16;47.74;101384.03;5031647;28;20025;-73
2021/06/25 07:50:08;;;;;;;8.57;4.63;;;;;;;19.38;48.08;101386.31;5031714;28;20028;-71
2021/06/25 07:52:34;;;;;;;7.18;4.32;;;;;;;19.61;47.96;101385.09;5031694;28;20033;-71
2021/06/25 07:54:59;;;;;;;6.85;4.50;;;;;;;19.92;49.17;101388.47;5031975;28;20079;-71
2021/06/25 07:57:24;;;;;;;13.85;4.68;;;;;;;19.98;47.77;101388.63;5030905;28;20107;-71
2021/06/25 07:59:50;;;;;;;6.70;5.07;;;;;;;19.81;48.51;101386.47;5013893;28;20021;-71
2021/06/25 08:02:16;;;;;;;8.88;4.70;;;;;;;19.82;45.74;101393.47;5031242;28;20526;-72
2021/06/25 08:04:48;;;;;;;8.98;3.53;;;;;;;19.68;46.95;101382.66;5029920;28;20029;-71
2021/06/25 08:07:14;;;;;;;5.88;3.65;;;;;;;19.62;44.73;101389.50;5013317;28;20028;-71
2021/06/25 08:09:40;;;;;;;6.70;3.10;;;;;;;20.21;44.90;101380.38;5030071;28;20033;-71
2021/06/25 08:12:07;;;;;;;8.65;3.47;;;;;;;20.56;43.88;101388.06;5031156;28;20097;-71
2021/06/25 08:14:33;;;;;;;4.30;2.95;;;;;;;20.92;42.74;101381.81;5033069;28;20084;-72
2021/06/25 08:16:58;;;;;;;6.13;3.65;;;;;;;20.62;42.67;101372.47;5051218;28;20110;-71
2021/06/25 08:19:23;;;;;;;5.32;3.00;;;;;;;20.76;42.59;101369.25;5032284;28;20033;-71
2021/06/25 08:21:49;;;;;;;6.53;3.13;;;;;;;21.09;42.56;101365.50;5051132;28;20021;-71
2021/06/25 08:24:14;;;;;;;8.02;3.35;;;;;;;21.23;42.35;101366.63;5024355;28;20052;-71
2021/06/25 08:26:39;;;;;;;7.07;3.40;;;;;;;21.21;42.71;101368.34;5041138;28;20024;-70
2021/06/25 08:29:05;;;;;;;5.35;3.08;;;;;;;21.56;42.74;101375.88;5041832;28;20025;-71
2021/06/25 08:31:30;;;;;;;6.43;2.90;;;;;;;21.68;42.32;101369.09;5048060;28;20028;-72
2021/06/25 08:33:56;;;;;;;5.18;3.17;;;;;;;21.65;41.40;101371.66;5061401;28;20449;-72
2021/06/25 08:36:24;;;;;;;7.53;3.85;;;;;;;21.55;42.14;101370.63;5060113;28;20016;-72
2021/06/25 08:38:50;;;;;;;9.30;3.60;;;;;;;21.46;43.34;101373.97;5050881;28;20519;-71
2021/06/25 08:41:16;;;;;;;8.38;3.67;;;;;;;21.81;41.73;101373.69;5024503;28;20028;-72
2021/06/25 08:43:41;;;;;;;5.13;3.47;;;;;;;21.49;41.01;101368.78;5052491;28;20024;-71
2021/06/25 08:46:09;;;;;;;5.78;3.15;;;;;;;21.35;41.36;101370.31;5063408;28;20144;-72
2021/06/25 08:48:37;;;;;;;5.15;3.35;;;;;;;21.60;41.10;101372.44;5052025;28;20410;-72
2021/06/25 08:51:05;;;;;;;4.40;2.70;;;;;;;21.71;40.34;101371.75;5052751;28;20092;-73
2021/06/25 08:53:31;;;;;;;6.22;3.38;;;;;;;20.72;41.02;101369.22;5053239;28;20017;-72
2021/06/25 08:55:56;;;;;;;4.90;2.60;;;;;;;21.06;41.89;101362.84;5052530;28;20028;-71
2021/06/25 08:58:23;;;;;;;4.72;3.13;;;;;;;21.06;43.69;101362.84;5049113;28;20371;-73
2021/06/25 09:00:50;;;;;;;7.45;2.67;;;;;;;21.13;42.47;101364.72;5039578;28;20068;-72
2021/06/25 09:03:27;;;;;;;4.85;2.70;;;;;;;21.17;40.81;101371.75;5045309;28;20035;-72
2021/06/25 09:06:10;;;;;;;7.97;3.03;;;;;;;21.26;40.44;101361.44;5049885;28;20121;-73
2021/06/25 09:08:36;;;;;;;4.80;2.70;;;;;;;21.69;42.64;101368.22;5049438;28;20025;-73
2021/06/25 09:11:23;;;;;;;3.20;2.20;;;;;;;21.01;40.00;101366.25;5049622;28;20044;-72
2021/06/25 09:14:02;;;;;;;4.65;2.35;;;;;;;21.14;40.99;101372.56;5045656;28;20037;-72
2021/06/25 09:16:29;;;;;;;4.72;2.72;;;;;;;21.62;40.17;101374.19;5045032;28;20024;-72
2021/06/25 09:19:00;;;;;;;5.72;2.83;;;;;;;21.25;41.22;101372.78;5059901;28;20143;-73
2021/06/25 09:21:28;;;;;;;3.67;2.60;;;;;;;22.11;39.36;101364.47;5059080;28;20024;-73
2021/06/25 09:23:53;;;;;;;3.65;2.47;;;;;;;22.94;37.59;101376.78;5051425;28;20021;-73
2021/06/25 09:26:22;;;;;;;5.38;2.42;;;;;;;27.25;31.01;101375.44;5044156;28;20135;-72
2021/06/25 09:28:49;;;;;;;3.30;2.00;;;;;;;30.29;23.78;101371.00;5048975;28;20055;-72
2021/06/25 09:31:22;;;;;;;3.63;2.20;;;;;;;32.62;22.64;101370.25;5052343;28;20025;-72
2021/06/25 09:33:51;;;;;;;4.72;2.47;;;;;;;32.40;21.58;101371.84;5037416;28;20034;-73
2021/06/25 09:36:27;;;;;;;8.13;3.20;;;;;;;33.93;19.58;101376.47;5029071;28;20558;-73
2021/06/25 09:39:01;;;;;;;7.53;2.75;;;;;;;34.51;19.33;101364.53;5032801;28;20594;-72
2021/06/25 09:41:28;;;;;;;3.25;2.28;;;;;;;37.38;16.97;101372.00;5049744;28;20078;-73
2021/06/25 09:44:02;;;;;;;9.45;3.88;;;;;;;33.06;20.83;101360.84;5032049;28;20051;-72
2021/06/25 09:46:29;;;;;;;4.00;2.60;;;;;;;34.34;20.39;101363.34;5032172;28;20020;-73
2021/06/25 09:48:57;;;;;;;4.15;2.80;;;;;;;28.39;27.92;101361.88;5050577;28;20156;-73
2021/06/25 09:51:24;;;;;;;4.05;2.60;;;;;;;30.94;24.96;101362.44;5049456;28;20111;-72
2021/06/25 09:54:10;;;;;;;5.18;3.55;;;;;;;30.05;24.95;101363.53;5032227;28;20033;-73
2021/06/25 09:56:40;;;;;;;7.38;3.75;;;;;;;26.62;30.87;101360.88;5050363;28;20025;-72
2021/06/25 10:01:53;;;;;;;8.63;3.40;;;;;;;27.54;29.79;101358.44;5032790;28;20028;-72
2021/06/25 10:04:36;;;;;;;7.88;3.35;;;;;;;25.87;31.65;101366.47;5035158;28;20021;-71
2021/06/25 10:07:18;;;;;;;6.88;3.60;;;;;;;26.12;31.98;101350.56;5044206;28;20020;-71
2021/06/25 10:09:47;;;;;;;5.15;3.50;;;;;;;25.51;34.28;101360.41;5056762;28;20129;-73
2021/06/25 10:12:14;;;;;;;4.88;3.33;;;;;;;25.22;34.48;101359.50;5048670;28;20016;-72
2021/06/25 10:14:41;;;;;;;8.80;3.72;;;;;;;33.37;21.97;101365.09;5043036;28;20539;-73
2021/06/25 10:17:11;;;;;;;4.47;2.97;;;;;;;30.73;26.21;101351.44;5039089;28;20029;-72
2021/06/25 10:19:49;;;;;;;6.93;3.88;;;;;;;26.47;30.47;101349.53;5034892;28;20031;-71
2021/06/25 10:22:18;;;;;;;4.55;3.17;;;;;;;26.01;32.43;101357.66;5034320;28;20024;-71
2021/06/25 10:24:48;;;;;;;5.85;3.40;;;;;;;25.75;32.71;101350.66;5036302;28;20063;-71
2021/06/25 10:27:13;;;;;;;4.10;3.45;;;;;;;24.88;34.16;101355.97;5038921;28;20024;-70
2021/06/25 10:29:40;;;;;;;6.80;3.17;;;;;;;24.38;36.31;101361.13;5038585;28;20393;-70
2021/06/25 10:32:09;;;;;;;6.28;4.03;;;;;;;24.88;33.34;101355.97;5055888;28;20013;-71
2021/06/25 10:34:38;;;;;;;;;;;;;;;24.67;35.84;101357.69;5056697;28;20490;-71
2021/06/25 10:37:05;;;;;;;;;;;;;;;24.23;36.07;101355.81;5036107;28;19983;-72
2021/06/25 10:39:34;;;;;;;6.85;3.80;;;;;;;23.75;36.51;101359.03;5038199;28;19923;-71
2021/06/25 10:42:05;;;;;;;6.15;4.15;;;;;;;22.55;38.14;101354.50;5042704;28;20021;-73
2021/06/25 10:44:36;;;;;;;6.03;4.05;;;;;;;22.55;38.51;101359.75;5047430;28;20119;-71
2021/06/25 10:47:32;;;;;;;5.95;3.17;;;;;;;22.77;38.86;101364.34;5062387;28;20108;-72
2021/06/25 10:50:05;;;;;;;6.47;3.83;;;;;;;23.25;37.37;101363.97;5062717;28;20029;-73
2021/06/25 10:52:38;;;;;;;5.75;3.20;;;;;;;23.20;39.14;101368.25;5054996;28;20108;-72
2021/06/25 10:55:10;;;;;;;5.18;3.20;;;;;;;23.08;37.54;101357.66;5046489;28;20032;-73
2021/06/25 10:57:59;;;;;;;4.32;3.30;;;;;;;23.01;38.16;101360.22;5027950;28;20037;-71
2021/06/25 11:00:53;;;;;;;5.25;2.95;;;;;;;23.55;36.48;101361.56;5054383;28;20032;-72
2021/06/25 11:03:48;;;;;;;4.18;2.38;;;;;;;25.34;34.32;101365.66;5054987;28;20037;-72
2021/06/25 11:06:36;;;;;;;4.70;2.90;;;;;;;24.42;33.59;101356.75;5024662;28;20097;-71
2021/06/25 11:09:06;;;;;;;4.18;3.20;;;;;;;24.69;33.93;101355.91;5060962;28;20029;-71
2021/06/25 11:11:32;;;;;;;5.60;3.30;;;;;;;24.12;34.99;101356.63;5053534;28;20032;-73
2021/06/25 11:13:58;;;;;;;4.68;3.38;;;;;;;24.71;33.88;101354.16;5055228;28;20033;-73
2021/06/25 11:16:24;;;;;;;4.93;2.53;;;;;;;25.27;34.18;101364.78;5061378;28;20095;-73
2021/06/25 11:18:50;;;;;;;7.88;3.10;;;;;;;25.59;33.49;101361.25;5053694;28;20458;-70
2021/06/25 11:21:16;;;;;;;5.00;3.17;;;;;;;25.20;32.83;101352.50;5045272;28;20108;-71
2021/06/25 11:23:44;;;;;;;6.20;3.60;;;;;;;25.31;32.57;101349.84;5052567;28;20467;-71
2021/06/25 11:26:18;;;;;;;5.57;3.53;;;;;;;24.87;34.59;101359.50;5063163;28;20028;-70
2021/06/25 11:29:10;;;;;;;5.95;3.65;;;;;;;24.10;35.94;101360.13;5060480;28;20029;-71
2021/06/25 11:31:36;;;;;;;6.20;3.40;;;;;;;23.66;36.97;101353.72;5047604;28;20040;-71
2021/06/25 11:34:04;;;;;;;4.20;2.75;;;;;;;23.84;36.89;101359.06;5049288;28;20044;-72
2021/06/25 11:36:41;;;;;;;8.02;4.05;;;;;;;23.27;36.39;101351.72;5048037;28;20047;-71